sensor_id;sensor_type;location;lat;lon;timestamp;P1;durP1;ratioP1;P2;durP2;ratioP2
25549;SDS011;13444;50.562;7.262;2024-01-10T00:01:49;29.60;;;15.47;;
25549;SDS011;13444;50.562;7.262;2024-01-10T00:04:15;25.47;;;14.27;;
25549;SDS011;13444;50.562;7.262;2024-01-10T00:06:41;28.03;;;15.30;;
25549;SDS011;13444;50.562;7.262;2024-01-10T00:09:07;24.90;;;14.97;;
25549;SDS011;13444;50.562;7.262;2024-01-10T00:11:33;26.73;;;14.70;;
25549;SDS011;13444;50.562;7.262;2024-01-10T00:13:59;29.17;;;15.70;;
25549;SDS011;13444;50.562;7.262;2024-01-10T00:16:28;31.00;;;15.00;;
25549;SDS011;13444;50.562;7.262;2024-01-10T00:18:53;27.20;;;14.47;;
25549;SDS011;13444;50.562;7.262;2024-01-10T00:21:19;30.80;;;15.23;;
25549;SDS011;13444;50.562;7.262;2024-01-10T00:23:44;28.17;;;15.87;;
25549;SDS011;13444;50.562;7.262;2024-01-10T00:26:10;28.37;;;15.13;;
25549;SDS011;13444;50.562;7.262;2024-01-10T00:28:35;31.40;;;15.43;;
25549;SDS011;13444;50.562;7.262;2024-01-10T00:31:01;26.63;;;14.37;;
25549;SDS011;13444;50.562;7.262;2024-01-10T00:33:27;27.33;;;14.50;;
25549;SDS011;13444;50.562;7.262;2024-01-10T00:35:53;29.60;;;14.97;;
25549;SDS011;13444;50.562;7.262;2024-01-10T00:38:18;23.53;;;13.50;;
25549;SDS011;13444;50.562;7.262;2024-01-10T00:40:44;29.40;;;14.40;;
25549;SDS011;13444;50.562;7.262;2024-01-10T00:43:09;29.57;;;13.47;;
25549;SDS011;13444;50.562;7.262;2024-01-10T00:45:35;23.97;;;13.70;;
25549;SDS011;13444;50.562;7.262;2024-01-10T00:48:00;28.13;;;13.90;;
25549;SDS011;13444;50.562;7.262;2024-01-10T00:50:26;29.17;;;14.27;;
25549;SDS011;13444;50.562;7.262;2024-01-10T00:52:51;23.73;;;13.03;;
25549;SDS011;13444;50.562;7.262;2024-01-10T00:55:17;28.03;;;13.53;;
25549;SDS011;13444;50.562;7.262;2024-01-10T00:57:42;25.17;;;12.73;;
25549;SDS011;13444;50.562;7.262;2024-01-10T01:00:08;21.70;;;12.50;;
25549;SDS011;13444;50.562;7.262;2024-01-10T01:02:35;21.37;;;11.93;;
25549;SDS011;13444;50.562;7.262;2024-01-10T01:05:02;22.17;;;12.10;;
25549;SDS011;13444;50.562;7.262;2024-01-10T01:07:28;24.50;;;13.50;;
25549;SDS011;13444;50.562;7.262;2024-01-10T01:09:53;23.40;;;12.03;;
25549;SDS011;13444;50.562;7.262;2024-01-10T01:12:19;23.30;;;12.53;;
25549;SDS011;13444;50.562;7.262;2024-01-10T01:14:44;22.53;;;12.37;;
25549;SDS011;13444;50.562;7.262;2024-01-10T01:17:10;25.27;;;12.77;;
25549;SDS011;13444;50.562;7.262;2024-01-10T01:19:36;24.50;;;12.87;;
25549;SDS011;13444;50.562;7.262;2024-01-10T01:22:01;25.70;;;12.40;;
25549;SDS011;13444;50.562;7.262;2024-01-10T01:24:27;24.33;;;12.43;;
25549;SDS011;13444;50.562;7.262;2024-01-10T01:26:52;23.90;;;11.97;;
25549;SDS011;13444;50.562;7.262;2024-01-10T01:29:18;23.47;;;11.83;;
25549;SDS011;13444;50.562;7.262;2024-01-10T01:31:44;23.60;;;11.47;;
25549;SDS011;13444;50.562;7.262;2024-01-10T01:34:10;25.00;;;12.03;;
25549;SDS011;13444;50.562;7.262;2024-01-10T01:36:35;22.03;;;11.87;;
25549;SDS011;13444;50.562;7.262;2024-01-10T01:39:01;23.03;;;12.03;;
25549;SDS011;13444;50.562;7.262;2024-01-10T01:41:27;26.20;;;12.27;;
25549;SDS011;13444;50.562;7.262;2024-01-10T01:43:52;22.93;;;12.73;;
25549;SDS011;13444;50.562;7.262;2024-01-10T01:46:18;20.90;;;12.03;;
25549;SDS011;13444;50.562;7.262;2024-01-10T01:48:43;23.67;;;11.97;;
25549;SDS011;13444;50.562;7.262;2024-01-10T01:51:09;21.47;;;11.93;;
25549;SDS011;13444;50.562;7.262;2024-01-10T01:53:37;23.47;;;12.90;;
25549;SDS011;13444;50.562;7.262;2024-01-10T01:56:05;21.30;;;10.47;;
25549;SDS011;13444;50.562;7.262;2024-01-10T01:58:32;24.50;;;12.63;;
25549;SDS011;13444;50.562;7.262;2024-01-10T02:00:59;27.60;;;13.13;;
25549;SDS011;13444;50.562;7.262;2024-01-10T02:03:34;21.61;;;12.10;;
25549;SDS011;13444;50.562;7.262;2024-01-10T02:06:00;20.80;;;12.23;;
25549;SDS011;13444;50.562;7.262;2024-01-10T02:08:29;23.30;;;12.90;;
25549;SDS011;13444;50.562;7.262;2024-01-10T02:10:57;22.53;;;11.83;;
25549;SDS011;13444;50.562;7.262;2024-01-10T02:13:23;25.30;;;12.30;;
25549;SDS011;13444;50.562;7.262;2024-01-10T02:15:49;23.87;;;11.77;;
25549;SDS011;13444;50.562;7.262;2024-01-10T02:18:16;21.00;;;11.63;;
25549;SDS011;13444;50.562;7.262;2024-01-10T02:20:44;23.00;;;12.63;;
25549;SDS011;13444;50.562;7.262;2024-01-10T02:23:10;21.73;;;11.87;;
25549;SDS011;13444;50.562;7.262;2024-01-10T02:25:45;23.02;;;11.75;;
25549;SDS011;13444;50.562;7.262;2024-01-10T02:28:10;21.70;;;11.73;;
25549;SDS011;13444;50.562;7.262;2024-01-10T02:30:36;21.30;;;12.57;;
25549;SDS011;13444;50.562;7.262;2024-01-10T02:33:02;19.10;;;10.30;;
25549;SDS011;13444;50.562;7.262;2024-01-10T02:35:28;20.03;;;11.47;;
25549;SDS011;13444;50.562;7.262;2024-01-10T02:40:35;24.37;;;10.90;;
25549;SDS011;13444;50.562;7.262;2024-01-10T02:43:01;24.37;;;11.57;;
25549;SDS011;13444;50.562;7.262;2024-01-10T02:45:27;18.27;;;10.13;;
25549;SDS011;13444;50.562;7.262;2024-01-10T02:47:52;17.67;;;9.93;;
25549;SDS011;13444;50.562;7.262;2024-01-10T02:50:18;22.73;;;11.30;;
25549;SDS011;13444;50.562;7.262;2024-01-10T02:52:52;19.77;;;10.76;;
25549;SDS011;13444;50.562;7.262;2024-01-10T02:55:17;20.93;;;11.37;;
25549;SDS011;13444;50.562;7.262;2024-01-10T02:57:43;16.97;;;9.90;;
25549;SDS011;13444;50.562;7.262;2024-01-10T03:00:08;18.60;;;10.40;;
25549;SDS011;13444;50.562;7.262;2024-01-10T03:02:35;18.03;;;10.37;;
25549;SDS011;13444;50.562;7.262;2024-01-10T03:05:00;19.17;;;10.57;;
25549;SDS011;13444;50.562;7.262;2024-01-10T03:07:26;22.13;;;11.73;;
25549;SDS011;13444;50.562;7.262;2024-01-10T03:09:51;21.60;;;10.97;;
25549;SDS011;13444;50.562;7.262;2024-01-10T03:12:17;21.90;;;12.00;;
25549;SDS011;13444;50.562;7.262;2024-01-10T03:14:43;21.63;;;12.53;;
25549;SDS011;13444;50.562;7.262;2024-01-10T03:17:08;20.93;;;10.87;;
25549;SDS011;13444;50.562;7.262;2024-01-10T03:19:34;21.17;;;11.60;;
25549;SDS011;13444;50.562;7.262;2024-01-10T03:22:02;20.03;;;11.43;;
25549;SDS011;13444;50.562;7.262;2024-01-10T03:24:27;20.33;;;11.33;;
25549;SDS011;13444;50.562;7.262;2024-01-10T03:26:53;23.30;;;10.97;;
25549;SDS011;13444;50.562;7.262;2024-01-10T03:29:18;17.23;;;10.13;;
25549;SDS011;13444;50.562;7.262;2024-01-10T03:31:44;21.83;;;11.17;;
25549;SDS011;13444;50.562;7.262;2024-01-10T03:34:09;19.70;;;10.80;;
25549;SDS011;13444;50.562;7.262;2024-01-10T03:36:35;20.00;;;10.97;;
25549;SDS011;13444;50.562;7.262;2024-01-10T03:39:00;21.70;;;10.97;;
25549;SDS011;13444;50.562;7.262;2024-01-10T03:41:26;20.40;;;10.33;;
25549;SDS011;13444;50.562;7.262;2024-01-10T03:43:51;17.93;;;10.60;;
25549;SDS011;13444;50.562;7.262;2024-01-10T03:46:17;20.03;;;10.20;;
25549;SDS011;13444;50.562;7.262;2024-01-10T03:48:43;16.73;;;10.13;;
25549;SDS011;13444;50.562;7.262;2024-01-10T03:51:16;16.67;;;9.50;;
25549;SDS011;13444;50.562;7.262;2024-01-10T03:53:42;21.17;;;10.50;;
25549;SDS011;13444;50.562;7.262;2024-01-10T03:56:08;18.93;;;10.10;;
25549;SDS011;13444;50.562;7.262;2024-01-10T03:58:34;20.77;;;10.27;;
25549;SDS011;13444;50.562;7.262;2024-01-10T04:00:59;16.57;;;9.70;;
25549;SDS011;13444;50.562;7.262;2024-01-10T04:03:29;16.43;;;9.63;;
25549;SDS011;13444;50.562;7.262;2024-01-10T04:05:55;18.80;;;10.60;;
25549;SDS011;13444;50.562;7.262;2024-01-10T04:08:20;16.37;;;9.67;;
25549;SDS011;13444;50.562;7.262;2024-01-10T04:10:46;18.20;;;10.20;;
25549;SDS011;13444;50.562;7.262;2024-01-10T04:13:11;18.97;;;10.13;;
25549;SDS011;13444;50.562;7.262;2024-01-10T04:15:37;19.27;;;9.93;;
25549;SDS011;13444;50.562;7.262;2024-01-10T04:18:02;16.40;;;9.57;;
25549;SDS011;13444;50.562;7.262;2024-01-10T04:20:28;19.03;;;9.43;;
25549;SDS011;13444;50.562;7.262;2024-01-10T04:22:53;19.80;;;11.30;;
25549;SDS011;13444;50.562;7.262;2024-01-10T04:25:19;20.67;;;10.13;;
25549;SDS011;13444;50.562;7.262;2024-01-10T04:27:44;22.20;;;10.90;;
25549;SDS011;13444;50.562;7.262;2024-01-10T04:30:10;19.73;;;11.30;;
25549;SDS011;13444;50.562;7.262;2024-01-10T04:32:36;17.90;;;10.40;;
25549;SDS011;13444;50.562;7.262;2024-01-10T04:35:02;18.43;;;10.40;;
25549;SDS011;13444;50.562;7.262;2024-01-10T04:37:27;18.73;;;10.77;;
25549;SDS011;13444;50.562;7.262;2024-01-10T04:39:53;22.40;;;10.53;;
25549;SDS011;13444;50.562;7.262;2024-01-10T04:42:18;25.57;;;11.17;;
25549;SDS011;13444;50.562;7.262;2024-01-10T04:44:44;18.17;;;11.53;;
25549;SDS011;13444;50.562;7.262;2024-01-10T04:47:09;19.63;;;11.47;;
25549;SDS011;13444;50.562;7.262;2024-01-10T04:49:35;21.50;;;11.07;;
25549;SDS011;13444;50.562;7.262;2024-01-10T04:52:00;23.77;;;12.10;;
25549;SDS011;13444;50.562;7.262;2024-01-10T04:54:26;21.63;;;12.60;;
25549;SDS011;13444;50.562;7.262;2024-01-10T04:56:52;23.83;;;12.47;;
25549;SDS011;13444;50.562;7.262;2024-01-10T04:59:17;21.97;;;12.30;;
25549;SDS011;13444;50.562;7.262;2024-01-10T05:01:43;25.70;;;12.90;;
25549;SDS011;13444;50.562;7.262;2024-01-10T05:04:08;23.77;;;12.00;;
25549;SDS011;13444;50.562;7.262;2024-01-10T05:06:34;19.77;;;11.37;;
25549;SDS011;13444;50.562;7.262;2024-01-10T05:08:59;23.87;;;12.07;;
25549;SDS011;13444;50.562;7.262;2024-01-10T05:11:25;22.87;;;12.70;;
25549;SDS011;13444;50.562;7.262;2024-01-10T05:13:51;22.57;;;12.20;;
25549;SDS011;13444;50.562;7.262;2024-01-10T05:16:16;22.13;;;10.93;;
25549;SDS011;13444;50.562;7.262;2024-01-10T05:18:42;20.23;;;11.50;;
25549;SDS011;13444;50.562;7.262;2024-01-10T05:21:08;17.30;;;11.27;;
25549;SDS011;13444;50.562;7.262;2024-01-10T05:23:33;20.20;;;11.70;;
25549;SDS011;13444;50.562;7.262;2024-01-10T05:25:59;18.97;;;11.20;;
25549;SDS011;13444;50.562;7.262;2024-01-10T05:28:25;21.67;;;11.53;;
25549;SDS011;13444;50.562;7.262;2024-01-10T05:30:50;20.07;;;11.83;;
25549;SDS011;13444;50.562;7.262;2024-01-10T05:33:16;21.43;;;11.50;;
25549;SDS011;13444;50.562;7.262;2024-01-10T05:35:42;20.00;;;10.80;;
25549;SDS011;13444;50.562;7.262;2024-01-10T05:38:07;22.77;;;12.17;;
25549;SDS011;13444;50.562;7.262;2024-01-10T05:40:33;17.63;;;10.73;;
25549;SDS011;13444;50.562;7.262;2024-01-10T05:42:58;20.47;;;11.63;;
25549;SDS011;13444;50.562;7.262;2024-01-10T05:45:24;17.33;;;9.53;;
25549;SDS011;13444;50.562;7.262;2024-01-10T05:47:50;17.63;;;10.67;;
25549;SDS011;13444;50.562;7.262;2024-01-10T05:50:16;17.80;;;10.13;;
25549;SDS011;13444;50.562;7.262;2024-01-10T05:52:42;24.87;;;11.13;;
25549;SDS011;13444;50.562;7.262;2024-01-10T05:55:08;24.07;;;11.10;;
25549;SDS011;13444;50.562;7.262;2024-01-10T05:57:35;23.57;;;10.73;;
25549;SDS011;13444;50.562;7.262;2024-01-10T06:00:01;21.13;;;11.10;;
25549;SDS011;13444;50.562;7.262;2024-01-10T06:02:28;18.60;;;9.83;;
25549;SDS011;13444;50.562;7.262;2024-01-10T06:04:53;18.33;;;10.60;;
25549;SDS011;13444;50.562;7.262;2024-01-10T06:07:19;19.33;;;10.70;;
25549;SDS011;13444;50.562;7.262;2024-01-10T06:09:46;22.77;;;11.97;;
25549;SDS011;13444;50.562;7.262;2024-01-10T06:12:11;20.33;;;10.93;;
25549;SDS011;13444;50.562;7.262;2024-01-10T06:14:37;20.23;;;10.87;;
25549;SDS011;13444;50.562;7.262;2024-01-10T06:17:02;18.57;;;10.37;;
25549;SDS011;13444;50.562;7.262;2024-01-10T06:19:29;19.03;;;11.13;;
25549;SDS011;13444;50.562;7.262;2024-01-10T06:21:56;15.83;;;9.80;;
25549;SDS011;13444;50.562;7.262;2024-01-10T06:24:22;18.90;;;10.70;;
25549;SDS011;13444;50.562;7.262;2024-01-10T06:26:47;18.63;;;11.00;;
25549;SDS011;13444;50.562;7.262;2024-01-10T06:29:14;20.13;;;10.57;;
25549;SDS011;13444;50.562;7.262;2024-01-10T06:31:40;22.30;;;11.40;;
25549;SDS011;13444;50.562;7.262;2024-01-10T06:34:05;20.73;;;11.80;;
25549;SDS011;13444;50.562;7.262;2024-01-10T06:36:31;20.90;;;11.23;;
25549;SDS011;13444;50.562;7.262;2024-01-10T06:38:57;18.83;;;10.43;;
25549;SDS011;13444;50.562;7.262;2024-01-10T06:41:22;21.77;;;11.37;;
25549;SDS011;13444;50.562;7.262;2024-01-10T06:43:51;23.33;;;11.67;;
25549;SDS011;13444;50.562;7.262;2024-01-10T06:46:17;20.77;;;10.90;;
25549;SDS011;13444;50.562;7.262;2024-01-10T06:48:43;22.97;;;10.83;;
25549;SDS011;13444;50.562;7.262;2024-01-10T06:51:15;24.70;;;11.73;;
25549;SDS011;13444;50.562;7.262;2024-01-10T06:53:41;21.93;;;11.17;;
25549;SDS011;13444;50.562;7.262;2024-01-10T06:56:07;21.97;;;11.90;;
25549;SDS011;13444;50.562;7.262;2024-01-10T06:58:34;19.83;;;11.87;;
25549;SDS011;13444;50.562;7.262;2024-01-10T07:01:00;25.90;;;13.53;;
25549;SDS011;13444;50.562;7.262;2024-01-10T07:03:27;29.73;;;14.23;;
25549;SDS011;13444;50.562;7.262;2024-01-10T07:05:53;29.23;;;13.30;;
25549;SDS011;13444;50.562;7.262;2024-01-10T07:08:18;30.07;;;14.53;;
25549;SDS011;13444;50.562;7.262;2024-01-10T07:10:44;30.60;;;14.77;;
25549;SDS011;13444;50.562;7.262;2024-01-10T07:13:10;33.13;;;16.30;;
25549;SDS011;13444;50.562;7.262;2024-01-10T07:15:36;29.23;;;15.20;;
25549;SDS011;13444;50.562;7.262;2024-01-10T07:18:03;31.33;;;15.97;;
25549;SDS011;13444;50.562;7.262;2024-01-10T07:20:29;34.27;;;14.83;;
25549;SDS011;13444;50.562;7.262;2024-01-10T07:22:55;31.97;;;15.40;;
25549;SDS011;13444;50.562;7.262;2024-01-10T07:25:20;29.97;;;13.47;;
25549;SDS011;13444;50.562;7.262;2024-01-10T07:27:50;27.57;;;14.00;;
25549;SDS011;13444;50.562;7.262;2024-01-10T07:30:15;25.53;;;13.53;;
25549;SDS011;13444;50.562;7.262;2024-01-10T07:32:41;27.80;;;13.60;;
25549;SDS011;13444;50.562;7.262;2024-01-10T07:35:08;26.30;;;13.43;;
25549;SDS011;13444;50.562;7.262;2024-01-10T07:37:40;28.87;;;12.80;;
25549;SDS011;13444;50.562;7.262;2024-01-10T07:40:07;23.97;;;13.47;;
25549;SDS011;13444;50.562;7.262;2024-01-10T07:42:36;21.50;;;12.27;;
25549;SDS011;13444;50.562;7.262;2024-01-10T07:45:02;22.73;;;11.90;;
25549;SDS011;13444;50.562;7.262;2024-01-10T07:47:32;24.50;;;11.70;;
25549;SDS011;13444;50.562;7.262;2024-01-10T07:50:08;22.10;;;11.67;;
25549;SDS011;13444;50.562;7.262;2024-01-10T07:52:35;22.77;;;12.47;;
25549;SDS011;13444;50.562;7.262;2024-01-10T07:55:01;20.70;;;11.13;;
25549;SDS011;13444;50.562;7.262;2024-01-10T07:57:30;27.10;;;12.83;;
25549;SDS011;13444;50.562;7.262;2024-01-10T07:59:55;26.50;;;13.07;;
25549;SDS011;13444;50.562;7.262;2024-01-10T08:02:21;26.43;;;12.80;;
25549;SDS011;13444;50.562;7.262;2024-01-10T08:04:47;23.87;;;12.40;;
25549;SDS011;13444;50.562;7.262;2024-01-10T08:07:13;27.87;;;13.03;;
25549;SDS011;13444;50.562;7.262;2024-01-10T08:09:38;22.90;;;12.10;;
25549;SDS011;13444;50.562;7.262;2024-01-10T08:12:04;27.00;;;13.97;;
25549;SDS011;13444;50.562;7.262;2024-01-10T08:14:30;29.37;;;15.40;;
25549;SDS011;13444;50.562;7.262;2024-01-10T08:16:55;30.20;;;16.20;;
25549;SDS011;13444;50.562;7.262;2024-01-10T08:19:26;34.90;;;18.67;;
25549;SDS011;13444;50.562;7.262;2024-01-10T08:21:52;39.13;;;18.17;;
25549;SDS011;13444;50.562;7.262;2024-01-10T08:24:21;33.93;;;19.17;;
25549;SDS011;13444;50.562;7.262;2024-01-10T08:26:47;32.23;;;16.00;;
25549;SDS011;13444;50.562;7.262;2024-01-10T08:29:20;27.43;;;13.77;;
25549;SDS011;13444;50.562;7.262;2024-01-10T08:31:46;27.10;;;13.77;;
25549;SDS011;13444;50.562;7.262;2024-01-10T08:34:12;26.83;;;13.60;;
25549;SDS011;13444;50.562;7.262;2024-01-10T08:36:38;29.20;;;12.33;;
25549;SDS011;13444;50.562;7.262;2024-01-10T08:39:04;27.70;;;13.67;;
25549;SDS011;13444;50.562;7.262;2024-01-10T08:41:29;25.63;;;13.90;;
25549;SDS011;13444;50.562;7.262;2024-01-10T08:43:56;30.00;;;13.67;;
25549;SDS011;13444;50.562;7.262;2024-01-10T08:46:22;26.20;;;12.80;;
25549;SDS011;13444;50.562;7.262;2024-01-10T08:48:49;22.53;;;12.03;;
25549;SDS011;13444;50.562;7.262;2024-01-10T08:51:15;26.40;;;12.53;;
25549;SDS011;13444;50.562;7.262;2024-01-10T08:53:42;26.80;;;12.80;;
25549;SDS011;13444;50.562;7.262;2024-01-10T08:56:08;30.70;;;13.77;;
25549;SDS011;13444;50.562;7.262;2024-01-10T08:58:35;22.67;;;13.40;;
25549;SDS011;13444;50.562;7.262;2024-01-10T09:01:00;27.23;;;13.50;;
25549;SDS011;13444;50.562;7.262;2024-01-10T09:03:26;26.37;;;13.60;;
25549;SDS011;13444;50.562;7.262;2024-01-10T09:05:52;26.93;;;13.60;;
25549;SDS011;13444;50.562;7.262;2024-01-10T09:08:17;22.80;;;12.60;;
25549;SDS011;13444;50.562;7.262;2024-01-10T09:10:43;30.30;;;15.10;;
25549;SDS011;13444;50.562;7.262;2024-01-10T09:13:08;29.70;;;15.23;;
25549;SDS011;13444;50.562;7.262;2024-01-10T09:15:34;26.80;;;13.07;;
25549;SDS011;13444;50.562;7.262;2024-01-10T09:17:59;27.67;;;14.77;;
25549;SDS011;13444;50.562;7.262;2024-01-10T09:20:25;28.97;;;14.60;;
25549;SDS011;13444;50.562;7.262;2024-01-10T09:22:51;29.43;;;14.00;;
25549;SDS011;13444;50.562;7.262;2024-01-10T09:25:16;38.40;;;15.67;;
25549;SDS011;13444;50.562;7.262;2024-01-10T09:27:42;31.43;;;16.57;;
25549;SDS011;13444;50.562;7.262;2024-01-10T09:30:09;36.27;;;16.80;;
25549;SDS011;13444;50.562;7.262;2024-01-10T09:32:35;41.20;;;20.10;;
25549;SDS011;13444;50.562;7.262;2024-01-10T09:35:01;38.50;;;18.47;;
25549;SDS011;13444;50.562;7.262;2024-01-10T09:37:26;34.33;;;16.47;;
25549;SDS011;13444;50.562;7.262;2024-01-10T09:39:52;27.80;;;14.47;;
25549;SDS011;13444;50.562;7.262;2024-01-10T09:42:18;29.27;;;13.53;;
25549;SDS011;13444;50.562;7.262;2024-01-10T09:44:46;28.67;;;14.73;;
25549;SDS011;13444;50.562;7.262;2024-01-10T09:47:13;29.40;;;15.07;;
25549;SDS011;13444;50.562;7.262;2024-01-10T09:49:40;29.63;;;15.70;;
25549;SDS011;13444;50.562;7.262;2024-01-10T09:52:05;32.77;;;14.33;;
25549;SDS011;13444;50.562;7.262;2024-01-10T09:54:35;29.60;;;14.90;;
25549;SDS011;13444;50.562;7.262;2024-01-10T09:57:05;27.83;;;14.33;;
25549;SDS011;13444;50.562;7.262;2024-01-10T09:59:31;27.43;;;14.40;;
25549;SDS011;13444;50.562;7.262;2024-01-10T10:01:56;30.87;;;15.37;;
25549;SDS011;13444;50.562;7.262;2024-01-10T10:04:23;31.13;;;15.23;;
25549;SDS011;13444;50.562;7.262;2024-01-10T10:06:58;35.20;;;15.83;;
25549;SDS011;13444;50.562;7.262;2024-01-10T10:09:26;28.57;;;15.00;;
25549;SDS011;13444;50.562;7.262;2024-01-10T10:11:56;31.80;;;15.90;;
25549;SDS011;13444;50.562;7.262;2024-01-10T10:14:24;33.60;;;17.40;;
25549;SDS011;13444;50.562;7.262;2024-01-10T10:16:52;32.80;;;16.37;;
25549;SDS011;13444;50.562;7.262;2024-01-10T10:19:24;38.97;;;17.53;;
25549;SDS011;13444;50.562;7.262;2024-01-10T10:21:50;32.73;;;16.37;;
25549;SDS011;13444;50.562;7.262;2024-01-10T10:24:16;36.03;;;15.90;;
25549;SDS011;13444;50.562;7.262;2024-01-10T10:26:42;30.00;;;15.70;;
25549;SDS011;13444;50.562;7.262;2024-01-10T10:29:08;36.47;;;16.23;;
25549;SDS011;13444;50.562;7.262;2024-01-10T10:31:34;32.27;;;16.47;;
25549;SDS011;13444;50.562;7.262;2024-01-10T10:34:01;38.10;;;17.47;;
25549;SDS011;13444;50.562;7.262;2024-01-10T10:36:27;33.37;;;16.10;;
25549;SDS011;13444;50.562;7.262;2024-01-10T10:38:55;37.93;;;16.47;;
25549;SDS011;13444;50.562;7.262;2024-01-10T10:41:20;34.07;;;17.23;;
25549;SDS011;13444;50.562;7.262;2024-01-10T10:43:46;36.57;;;19.20;;
25549;SDS011;13444;50.562;7.262;2024-01-10T10:46:15;39.77;;;17.40;;
25549;SDS011;13444;50.562;7.262;2024-01-10T10:48:41;35.73;;;17.57;;
25549;SDS011;13444;50.562;7.262;2024-01-10T10:51:11;40.23;;;18.23;;
25549;SDS011;13444;50.562;7.262;2024-01-10T10:53:41;34.23;;;17.60;;
25549;SDS011;13444;50.562;7.262;2024-01-10T10:56:10;34.87;;;17.90;;
25549;SDS011;13444;50.562;7.262;2024-01-10T10:58:42;34.23;;;16.53;;
25549;SDS011;13444;50.562;7.262;2024-01-10T11:01:09;37.97;;;17.03;;
25549;SDS011;13444;50.562;7.262;2024-01-10T11:03:37;35.40;;;16.40;;
25549;SDS011;13444;50.562;7.262;2024-01-10T11:06:05;37.63;;;17.37;;
25549;SDS011;13444;50.562;7.262;2024-01-10T11:08:38;31.43;;;15.40;;
25549;SDS011;13444;50.562;7.262;2024-01-10T11:21:57;34.97;;;17.67;;
25549;SDS011;13444;50.562;7.262;2024-01-10T11:24:35;32.57;;;16.20;;
25549;SDS011;13444;50.562;7.262;2024-01-10T11:27:07;35.03;;;16.43;;
25549;SDS011;13444;50.562;7.262;2024-01-10T11:29:37;35.23;;;16.50;;
25549;SDS011;13444;50.562;7.262;2024-01-10T11:32:04;38.10;;;17.67;;
25549;SDS011;13444;50.562;7.262;2024-01-10T11:37:44;32.13;;;16.13;;
25549;SDS011;13444;50.562;7.262;2024-01-10T11:40:14;33.67;;;16.80;;
25549;SDS011;13444;50.562;7.262;2024-01-10T11:42:41;34.03;;;17.17;;
25549;SDS011;13444;50.562;7.262;2024-01-10T11:45:07;33.63;;;16.00;;
25549;SDS011;13444;50.562;7.262;2024-01-10T11:47:33;35.77;;;16.60;;
25549;SDS011;13444;50.562;7.262;2024-01-10T11:49:59;31.23;;;16.73;;
25549;SDS011;13444;50.562;7.262;2024-01-10T11:52:33;33.07;;;16.70;;
25549;SDS011;13444;50.562;7.262;2024-01-10T11:55:01;32.47;;;16.67;;
25549;SDS011;13444;50.562;7.262;2024-01-10T11:57:27;39.67;;;17.40;;
25549;SDS011;13444;50.562;7.262;2024-01-10T11:59:54;36.43;;;17.23;;
25549;SDS011;13444;50.562;7.262;2024-01-10T12:02:21;35.83;;;17.87;;
25549;SDS011;13444;50.562;7.262;2024-01-10T12:04:50;36.33;;;16.77;;
25549;SDS011;13444;50.562;7.262;2024-01-10T12:07:16;45.70;;;18.23;;
25549;SDS011;13444;50.562;7.262;2024-01-10T12:09:42;38.17;;;17.83;;
25549;SDS011;13444;50.562;7.262;2024-01-10T12:12:08;33.43;;;16.57;;
25549;SDS011;13444;50.562;7.262;2024-01-10T12:14:36;29.27;;;15.67;;
25549;SDS011;13444;50.562;7.262;2024-01-10T12:17:01;30.57;;;16.30;;
25549;SDS011;13444;50.562;7.262;2024-01-10T12:19:29;34.73;;;16.37;;
25549;SDS011;13444;50.562;7.262;2024-01-10T12:21:55;37.90;;;16.30;;
25549;SDS011;13444;50.562;7.262;2024-01-10T12:24:21;32.40;;;15.60;;
25549;SDS011;13444;50.562;7.262;2024-01-10T12:26:47;36.30;;;15.87;;
25549;SDS011;13444;50.562;7.262;2024-01-10T12:29:13;34.07;;;16.83;;
25549;SDS011;13444;50.562;7.262;2024-01-10T12:31:45;30.87;;;15.53;;
25549;SDS011;13444;50.562;7.262;2024-01-10T12:34:12;32.23;;;15.83;;
25549;SDS011;13444;50.562;7.262;2024-01-10T12:36:37;34.33;;;17.37;;
25549;SDS011;13444;50.562;7.262;2024-01-10T12:39:03;33.67;;;16.23;;
25549;SDS011;13444;50.562;7.262;2024-01-10T12:41:32;27.43;;;16.00;;
25549;SDS011;13444;50.562;7.262;2024-01-10T12:44:00;35.60;;;15.70;;
25549;SDS011;13444;50.562;7.262;2024-01-10T12:46:28;39.30;;;17.27;;
25549;SDS011;13444;50.562;7.262;2024-01-10T12:49:14;29.50;;;15.40;;
25549;SDS011;13444;50.562;7.262;2024-01-10T12:51:40;32.73;;;16.57;;
25549;SDS011;13444;50.562;7.262;2024-01-10T12:54:06;34.13;;;16.03;;
25549;SDS011;13444;50.562;7.262;2024-01-10T12:56:32;28.87;;;15.80;;
25549;SDS011;13444;50.562;7.262;2024-01-10T12:58:57;31.07;;;16.07;;
25549;SDS011;13444;50.562;7.262;2024-01-10T13:01:23;32.67;;;15.23;;
25549;SDS011;13444;50.562;7.262;2024-01-10T13:03:49;33.87;;;15.50;;
25549;SDS011;13444;50.562;7.262;2024-01-10T13:06:15;31.33;;;16.10;;
25549;SDS011;13444;50.562;7.262;2024-01-10T13:08:44;29.97;;;15.10;;
25549;SDS011;13444;50.562;7.262;2024-01-10T13:11:10;30.03;;;15.23;;
25549;SDS011;13444;50.562;7.262;2024-01-10T13:13:36;32.80;;;14.90;;
25549;SDS011;13444;50.562;7.262;2024-01-10T13:16:05;27.40;;;14.83;;
25549;SDS011;13444;50.562;7.262;2024-01-10T13:18:31;35.80;;;16.63;;
25549;SDS011;13444;50.562;7.262;2024-01-10T13:20:56;39.30;;;16.80;;
25549;SDS011;13444;50.562;7.262;2024-01-10T13:23:22;35.97;;;17.73;;
25549;SDS011;13444;50.562;7.262;2024-01-10T13:25:49;33.80;;;16.93;;
25549;SDS011;13444;50.562;7.262;2024-01-10T13:28:15;29.73;;;15.23;;
25549;SDS011;13444;50.562;7.262;2024-01-10T13:30:41;31.87;;;16.37;;
25549;SDS011;13444;50.562;7.262;2024-01-10T13:33:08;27.97;;;15.00;;
25549;SDS011;13444;50.562;7.262;2024-01-10T13:35:37;25.83;;;13.03;;
25549;SDS011;13444;50.562;7.262;2024-01-10T13:38:03;29.93;;;15.47;;
25549;SDS011;13444;50.562;7.262;2024-01-10T13:40:29;33.70;;;14.30;;
25549;SDS011;13444;50.562;7.262;2024-01-10T13:42:56;26.30;;;13.50;;
25549;SDS011;13444;50.562;7.262;2024-01-10T13:45:22;26.77;;;13.13;;
25549;SDS011;13444;50.562;7.262;2024-01-10T13:47:48;34.57;;;14.70;;
25549;SDS011;13444;50.562;7.262;2024-01-10T13:50:14;25.77;;;14.17;;
25549;SDS011;13444;50.562;7.262;2024-01-10T13:52:39;25.53;;;13.83;;
25549;SDS011;13444;50.562;7.262;2024-01-10T13:55:05;25.80;;;13.50;;
25549;SDS011;13444;50.562;7.262;2024-01-10T13:57:31;30.93;;;14.87;;
25549;SDS011;13444;50.562;7.262;2024-01-10T14:00:00;30.47;;;15.10;;
25549;SDS011;13444;50.562;7.262;2024-01-10T14:02:26;30.67;;;14.77;;
25549;SDS011;13444;50.562;7.262;2024-01-10T14:04:52;27.43;;;14.20;;
25549;SDS011;13444;50.562;7.262;2024-01-10T14:07:19;27.20;;;13.83;;
25549;SDS011;13444;50.562;7.262;2024-01-10T14:09:45;31.43;;;14.10;;
25549;SDS011;13444;50.562;7.262;2024-01-10T14:12:11;26.90;;;13.40;;
25549;SDS011;13444;50.562;7.262;2024-01-10T14:14:37;25.07;;;14.30;;
25549;SDS011;13444;50.562;7.262;2024-01-10T14:17:03;23.90;;;14.00;;
25549;SDS011;13444;50.562;7.262;2024-01-10T14:19:29;28.97;;;14.50;;
25549;SDS011;13444;50.562;7.262;2024-01-10T14:21:54;28.40;;;14.07;;
25549;SDS011;13444;50.562;7.262;2024-01-10T14:24:20;28.60;;;13.70;;
25549;SDS011;13444;50.562;7.262;2024-01-10T14:26:45;28.70;;;14.00;;
25549;SDS011;13444;50.562;7.262;2024-01-10T14:29:12;33.07;;;15.27;;
25549;SDS011;13444;50.562;7.262;2024-01-10T14:31:37;28.43;;;14.50;;
25549;SDS011;13444;50.562;7.262;2024-01-10T14:34:04;28.37;;;14.13;;